»·PEaware :: N416JK KIFP-KTNP

N416JK :: KIFP-KTNP

FLIGHT INFORMATION

Flight Status: Arrived
Operator: Privately registered:
United States
More flights under this callsign
Pilot: John K. (4202)
Aircraft: PIPER PA-46-310/350P MALIBU MIRAGE
(PA46)
More flights by this aircraft type
Origin: KIFP Laughlin/Bullhead Intl
United States
Destination: KTNP Twentynine Palms
United States
More flights between these airports :: More routes between these airports
Route: EED ZELMA JOTNU TNP
File this flight plan on PilotEdge
Remarks:
Altitude:
(Current/Filed)
12,000ft
Speed:
(Current/Filed)
180kts
Departed: 07-Jun-18 01:07 PM
Arrived: 07-Jun-18 01:50 PM
Distance/Time
Traveled:
92nm/0:43
Distance/Time
To Go:
Arrived

Flight Plot

Page will automatically refresh every two minutes.

Flight plan parsing failed; only flown route is shown


Map Options




Map Legend


Flown Route
Filed Route
Departure Airport
Arrival Airport
Navaid (VOR, NDB)
Fix

Horizontal Profiles

Position Reports

Time Latitude Longitude Heading Altitude Ground
Speed
07-Jun-18 12:56 35.159767 -114.556366 266 705ft 0kts
07-Jun-18 12:57 35.159767 -114.556366 266 705ft 0kts
07-Jun-18 12:58 35.159767 -114.556366 266 705ft 0kts
07-Jun-18 12:59 35.159767 -114.556366 266 705ft 0kts
07-Jun-18 13:00 35.159767 -114.556366 266 705ft 0kts
07-Jun-18 13:01 35.159767 -114.556366 266 705ft 0kts
07-Jun-18 13:02 35.159767 -114.556366 266 705ft 0kts
07-Jun-18 13:03 35.159545 -114.557166 265 705ft 9kts
07-Jun-18 13:04 35.162277 -114.558510 356 705ft 10kts
07-Jun-18 13:05 35.165345 -114.558731 357 705ft 11kts
07-Jun-18 13:06 35.166184 -114.559096 281 705ft 0kts
07-Jun-18 13:07 35.163939 -114.560058 177 705ft 54kts
07-Jun-18 13:08 35.136889 -114.556552 175 1577ft 118kts
07-Jun-18 13:09 35.107384 -114.554505 175 3083ft 88kts
07-Jun-18 13:10 35.089770 -114.552615 161 4377ft 55kts
07-Jun-18 13:11 35.067190 -114.550549 176 5241ft 101kts
07-Jun-18 13:12 35.034670 -114.547961 176 6095ft 133kts
07-Jun-18 13:13 34.997689 -114.544933 176 7164ft 136kts
07-Jun-18 13:14 34.960457 -114.540962 168 8182ft 141kts
07-Jun-18 13:15 34.921460 -114.527223 167 9094ft 149kts
07-Jun-18 13:16 34.903772 -114.561168 260 10010ft 162kts
07-Jun-18 13:17 34.896156 -114.614387 253 10899ft 163kts
07-Jun-18 13:18 34.887828 -114.668161 253 11782ft 165kts
07-Jun-18 13:19 34.878596 -114.727086 254 12050ft 193kts
07-Jun-18 13:20 34.868333 -114.793178 255 12046ft 207kts
07-Jun-18 13:21 34.857667 -114.861460 255 12045ft 210kts
07-Jun-18 13:22 34.846645 -114.931594 255 12044ft 210kts
07-Jun-18 13:23 34.835817 -114.999984 255 12044ft 208kts
07-Jun-18 13:24 34.824957 -115.068347 255 12044ft 208kts
07-Jun-18 13:25 34.817469 -115.115118 257 12031ft 209kts
07-Jun-18 13:26 34.806589 -115.184913 257 12027ft 211kts
07-Jun-18 13:27 34.795570 -115.254112 257 12027ft 212kts
07-Jun-18 13:28 34.783367 -115.322720 237 12003ft 212kts
07-Jun-18 13:29 34.740158 -115.348323 201 12027ft 211kts
07-Jun-18 13:30 34.686698 -115.372124 200 12012ft 211kts
07-Jun-18 13:31 34.633154 -115.395582 200 12046ft 210kts
07-Jun-18 13:32 34.579734 -115.418921 200 12087ft 209kts
07-Jun-18 13:33 34.524993 -115.442800 200 12117ft 209kts
07-Jun-18 13:34 34.471609 -115.466064 200 12118ft 210kts
07-Jun-18 13:35 34.418086 -115.489390 200 12119ft 210kts
07-Jun-18 13:36 34.364074 -115.512891 200 12040ft 212kts
07-Jun-18 13:37 34.311898 -115.545115 223 10939ft 215kts
07-Jun-18 13:38 34.269192 -115.593420 222 9866ft 214kts
07-Jun-18 13:39 34.226835 -115.641142 221 8790ft 210kts
07-Jun-18 13:40 34.187389 -115.685489 221 7695ft 176kts
07-Jun-18 13:41 34.155566 -115.721151 220 7123ft 148kts
07-Jun-18 13:42 34.123700 -115.756896 220 7123ft 170kts
07-Jun-18 13:43 34.116898 -115.811734 275 7121ft 184kts
07-Jun-18 13:44 34.123654 -115.873207 275 7107ft 173kts
07-Jun-18 13:45 34.128981 -115.922398 275 7013ft 146kts
07-Jun-18 13:46 34.134958 -115.973201 285 5142ft 154kts
07-Jun-18 13:47 34.141913 -116.014795 212 2720ft 111kts
07-Jun-18 13:48 34.130425 -115.998181 91 2377ft 96kts
07-Jun-18 13:49 34.134327 -115.964755 90 2192ft 86kts
07-Jun-18 13:50 34.134366 -115.944719 98 1891ft 18kts
07-Jun-18 13:51 34.135295 -115.941533 0 1891ft 8kts
07-Jun-18 13:52 34.135886 -115.941867 183 1891ft 0kts

Navigation Log

Ident Type
Flight plan parsing failed, navigation log unavailable